Bookmark and Share
Track history (hours):
 

Cap Bianco

Last reported at 2014-Apr-16 15:24 UTC. Time now 2014-Apr-20 18:56 UTC.
Position S 27°54' W 048°01'.

Length 222 m; draft 9 m.

Type: Cargo ship. MMSI: 636091489.

NotesDate/timePositionNaut miles runAvg speedWind from/ knotsBaromVisibWave heightAir tempDewpointWater temp
2014-Apr-16 15:24S 27°54' W 048°01'23515.7
2014-Apr-16 00:27S 24°14' W 046°27'1314.7
2014-Apr-15 23:34S 24°02' W 046°21'5 5.4
2014-Apr-15 22:32S 23°58' W 046°18'0 0.0
2014-Apr-15 21:29S 23°58' W 046°18'0 0.0
2014-Apr-15 20:32S 23°58' W 046°18'0 0.0
2014-Apr-15 19:32S 23°58' W 046°18'0 0.0
2014-Apr-15 18:29S 23°58' W 046°18'0 0.0
2014-Apr-15 17:29S 23°58' W 046°18'0 0.0
2014-Apr-15 16:32S 23°58' W 046°18'0 0.0
2014-Apr-15 15:32S 23°58' W 046°18'0 0.0
2014-Apr-15 14:32S 23°58' W 046°18'0 0.0
2014-Apr-15 12:33S 23°58' W 046°18'0 0.0
2014-Apr-15 11:33S 23°58' W 046°18'0 0.0
2014-Apr-15 10:33S 23°58' W 046°18'0 0.0
2014-Apr-15 08:30S 23°58' W 046°18'0 0.0
2014-Apr-15 07:33S 23°58' W 046°18'0 0.0
2014-Apr-15 06:33S 23°58' W 046°18'0 0.0
2014-Apr-15 05:33S 23°58' W 046°18'0 0.0
2014-Apr-15 03:33S 23°58' W 046°18'0 0.0
2014-Apr-15 02:33S 23°58' W 046°18'0 0.0
2014-Apr-15 01:30S 23°58' W 046°18'0 0.0
2014-Apr-15 00:32S 23°58' W 046°18'0 0.0
2014-Apr-14 23:32S 23°58' W 046°18'0 0.0
2014-Apr-14 22:32S 23°58' W 046°18'0 0.0
2014-Apr-14 21:32S 23°58' W 046°18'0 0.0
2014-Apr-14 20:29S 23°58' W 046°18'4 4.3
2014-Apr-14 19:34S 24°01' W 046°20'6 6.0
2014-Apr-14 18:30S 24°07' W 046°18'0 0.0
2014-Apr-14 17:33S 24°07' W 046°18'0 0.0
2014-Apr-14 16:33S 24°07' W 046°18'0 0.0
2014-Apr-14 15:33S 24°07' W 046°18'0 0.0
2014-Apr-14 11:33S 24°07' W 046°18'0 0.0
2014-Apr-14 10:30S 24°07' W 046°18'0 0.0
2014-Apr-14 09:33S 24°07' W 046°18'0 0.0
2014-Apr-14 06:33S 24°07' W 046°18'227 7.2
2014-Apr-12 23:04S 27°28' W 048°15'712.3
2014-Apr-12 22:32S 27°34' W 048°16'1212.2
2014-Apr-12 21:33S 27°46' W 048°20'  

Dump ship's entire track history

sailing weather and tide predictions

Cap Bianco — A8OK5 — position and weather